Time;durP1;ratioP1;P1;durP2;ratioP2;P2;SDS_P1;SDS_P2;PMS_P1;PMS_P2;Temp;Humidity;BMP_temperature;BMP_pressure;BME280_temperature;BME280_humidity;BME280_pressure;Samples;Min_cycle;Max_cycle;Signal;HPM_P1;HPM_P2
2023/05/28 00:00:56;;;;;;;5.25;3.10;;;;;;;13.29;81.12;94689.06;5050728;28;20585;-71
2023/05/28 00:03:23;;;;;;;5.05;3.40;;;;;;;13.53;80.54;94699.78;5047988;28;20033;-71
2023/05/28 00:05:49;;;;;;;4.32;3.50;;;;;;;13.43;81.09;94695.56;5048713;28;20021;-71
2023/05/28 00:08:14;;;;;;;7.50;3.30;;;;;;;13.41;79.67;94699.16;5047189;28;20048;-71
2023/05/28 00:10:41;;;;;;;3.80;3.30;;;;;;;13.24;80.77;94691.28;5048202;28;20430;-71
2023/05/28 00:13:06;;;;;;;4.65;3.70;;;;;;;13.34;81.49;94695.50;5031426;28;20334;-71
2023/05/28 00:15:31;;;;;;;5.38;3.83;;;;;;;13.28;81.60;94692.66;5031584;28;20037;-71
2023/05/28 00:17:57;;;;;;;5.53;4.05;;;;;;;13.21;82.54;94700.22;5046374;28;20028;-71
2023/05/28 00:20:23;;;;;;;5.97;4.35;;;;;;;13.03;83.30;94679.31;5047277;28;20029;-71
2023/05/28 00:22:48;;;;;;;3.97;3.33;;;;;;;13.31;83.31;94689.75;5047706;28;20025;-71
2023/05/28 00:25:14;;;;;;;4.22;3.38;;;;;;;13.28;83.36;94696.09;5031347;28;20029;-72
2023/05/28 00:27:39;;;;;;;6.72;3.53;;;;;;;13.43;83.28;94698.19;5046430;28;20037;-71
2023/05/28 00:30:06;;;;;;;4.53;3.65;;;;;;;13.45;83.28;94701.47;5046950;28;20036;-71
2023/05/28 00:32:31;;;;;;;5.88;3.78;;;;;;;13.56;83.02;94696.03;5047618;28;20087;-71
2023/05/28 00:34:56;;;;;;;5.10;4.05;;;;;;;13.41;83.24;94688.72;5047806;28;20528;-72
2023/05/28 00:37:22;;;;;;;4.45;3.47;;;;;;;13.45;83.25;94691.03;5050007;28;20017;-72
2023/05/28 00:39:47;;;;;;;5.28;3.88;;;;;;;13.51;82.68;94690.44;5046444;28;20033;-72
2023/05/28 00:42:14;;;;;;;6.10;3.80;;;;;;;13.47;83.38;94689.13;5048363;28;20078;-71
2023/05/28 00:44:39;;;;;;;6.10;4.10;;;;;;;13.23;82.89;94677.41;5030421;28;20453;-71
2023/05/28 00:47:05;;;;;;;5.10;3.85;;;;;;;13.43;84.20;94672.09;5014489;28;20033;-71
2023/05/28 00:49:32;;;;;;;4.65;3.80;;;;;;;13.38;84.06;94681.19;5028934;28;20158;-71
2023/05/28 00:51:58;;;;;;;6.70;3.70;;;;;;;13.17;84.71;94683.22;5030677;28;20029;-71
2023/05/28 00:54:23;;;;;;;5.75;3.70;;;;;;;13.47;84.14;94679.50;5030742;28;20406;-71
2023/05/28 00:56:49;;;;;;;5.80;3.92;;;;;;;13.48;83.82;94675.91;5047238;28;20025;-71
2023/05/28 00:59:16;;;;;;;4.22;3.60;;;;;;;13.38;82.99;94677.78;5045480;28;20498;-71
2023/05/28 01:01:41;;;;;;;5.90;3.40;;;;;;;13.50;82.26;94679.19;5030509;28;20028;-71
2023/05/28 01:04:07;;;;;;;4.22;3.40;;;;;;;13.48;81.89;94675.91;5030153;28;20114;-71
2023/05/28 01:06:32;;;;;;;5.72;3.40;;;;;;;13.33;82.65;94677.38;5014646;28;20032;-71
2023/05/28 01:08:57;;;;;;;4.05;3.65;;;;;;;13.28;83.31;94680.44;5045535;28;20071;-72
2023/05/28 01:11:23;;;;;;;6.50;4.20;;;;;;;13.31;83.83;94669.69;5030073;28;20396;-71
2023/05/28 01:13:48;;;;;;;5.00;4.20;;;;;;;13.18;84.14;94664.81;5030305;28;20521;-71
2023/05/28 01:16:14;;;;;;;6.10;4.63;;;;;;;13.14;84.00;94657.44;5047008;28;20079;-71
2023/05/28 01:18:40;;;;;;;7.15;4.72;;;;;;;13.14;84.54;94660.84;5028540;28;20095;-71
2023/05/28 01:21:06;;;;;;;6.28;4.95;;;;;;;13.30;84.29;94652.41;5010952;28;20033;-71
2023/05/28 01:23:40;;;;;;;6.10;5.47;;;;;;;13.18;83.96;94658.78;5030282;28;20033;-71
2023/05/28 01:26:05;;;;;;;7.32;5.30;;;;;;;13.13;83.90;94653.19;5026753;28;20025;-71
2023/05/28 01:28:32;;;;;;;9.77;5.70;;;;;;;13.23;83.04;94655.72;5026255;28;20044;-71
2023/05/28 01:30:58;;;;;;;5.30;4.72;;;;;;;13.13;83.58;94651.41;5047501;28;20021;-71
2023/05/28 01:33:24;;;;;;;6.75;5.25;;;;;;;13.10;84.34;94656.09;5028647;28;20522;-71
2023/05/28 01:35:50;;;;;;;6.18;4.75;;;;;;;13.07;83.96;94645.97;5027291;28;20041;-71
2023/05/28 01:38:15;;;;;;;8.65;5.60;;;;;;;13.04;84.33;94664.47;5043610;28;20502;-71
2023/05/28 01:40:43;;;;;;;7.95;5.35;;;;;;;13.16;84.88;94658.09;5045773;28;20029;-71
2023/05/28 01:43:09;;;;;;;7.00;5.65;;;;;;;13.03;84.77;94655.84;5045274;28;20021;-71
2023/05/28 01:45:34;;;;;;;5.65;4.97;;;;;;;13.01;85.18;94656.94;5046013;28;20090;-71
2023/05/28 01:48:00;;;;;;;6.43;5.30;;;;;;;13.04;85.17;94660.09;5027994;28;20041;-71
2023/05/28 01:50:26;;;;;;;6.63;5.40;;;;;;;13.15;85.10;94648.66;5045420;28;20032;-71
2023/05/28 01:52:51;;;;;;;8.00;5.30;;;;;;;13.18;84.40;94630.09;5029819;28;20078;-71
2023/05/28 01:55:17;;;;;;;5.03;4.50;;;;;;;13.19;83.92;94655.19;5047145;28;20041;-71
2023/05/28 01:57:42;;;;;;;6.60;5.32;;;;;;;13.10;84.23;94645.66;5044519;28;20090;-71
2023/05/28 02:00:09;;;;;;;7.20;4.72;;;;;;;13.24;84.11;94646.94;5044914;28;20041;-71
2023/05/28 02:02:35;;;;;;;7.50;5.13;;;;;;;13.32;83.72;94657.50;5046975;28;20031;-71
2023/05/28 02:05:01;;;;;;;6.80;5.30;;;;;;;13.23;83.76;94650.50;5046227;28;20045;-71
2023/05/28 02:07:26;;;;;;;6.38;4.85;;;;;;;13.22;83.94;94649.69;5047645;28;20083;-71
2023/05/28 02:09:52;;;;;;;6.80;5.07;;;;;;;13.19;83.50;94648.19;5027935;28;20064;-71
2023/05/28 02:12:17;;;;;;;6.80;5.07;;;;;;;13.02;83.88;94616.88;5029107;28;20526;-71
2023/05/28 02:14:43;;;;;;;6.75;5.00;;;;;;;13.22;83.67;94649.69;5045659;28;20518;-71
2023/05/28 02:17:09;;;;;;;7.40;4.68;;;;;;;13.20;83.90;94651.63;5028951;28;20083;-71
2023/05/28 02:19:35;;;;;;;5.43;4.70;;;;;;;13.03;83.22;94624.53;5044171;28;20037;-71
2023/05/28 02:22:01;;;;;;;5.68;5.07;;;;;;;13.23;83.83;94647.91;5029314;28;20028;-71
2023/05/28 02:24:26;;;;;;;6.88;4.75;;;;;;;13.32;83.21;94650.50;5047106;28;20038;-71
2023/05/28 02:26:52;;;;;;;5.15;4.60;;;;;;;13.23;83.57;94651.31;5045490;28;20028;-71
2023/05/28 02:29:17;;;;;;;6.03;5.22;;;;;;;13.07;83.98;94640.75;5045380;28;20036;-71
2023/05/28 02:31:42;;;;;;;6.63;5.28;;;;;;;13.18;82.84;94658.78;5047075;28;20025;-71
2023/05/28 02:34:08;;;;;;;5.65;5.05;;;;;;;13.08;83.31;94651.00;5047419;28;20025;-71
2023/05/28 02:36:35;;;;;;;5.70;5.15;;;;;;;13.16;83.12;94652.88;5029135;28;20483;-71
2023/05/28 02:39:01;;;;;;;8.68;5.00;;;;;;;13.13;83.19;94654.00;5045946;28;20036;-71
2023/05/28 02:41:26;;;;;;;7.03;5.10;;;;;;;13.31;82.77;94648.81;5045485;28;20029;-71
2023/05/28 02:43:53;;;;;;;5.80;4.90;;;;;;;13.20;83.81;94651.63;5045668;28;20082;-71
2023/05/28 02:46:18;;;;;;;5.60;4.78;;;;;;;13.27;84.21;94657.13;5047114;28;20029;-71
2023/05/28 02:48:45;;;;;;;6.88;4.88;;;;;;;13.25;83.83;94656.41;5027098;28;20037;-71
2023/05/28 02:51:11;;;;;;;7.13;5.28;;;;;;;13.27;83.93;94652.72;5046375;28;20499;-72
2023/05/28 02:53:36;;;;;;;5.20;4.50;;;;;;;13.34;83.82;94647.72;5029345;28;20107;-71
2023/05/28 02:56:02;;;;;;;5.57;4.38;;;;;;;13.31;82.88;94661.06;5008866;28;20490;-71
2023/05/28 02:58:28;;;;;;;6.13;4.68;;;;;;;13.37;82.39;94670.91;5023923;28;20541;-71
2023/05/28 03:00:53;;;;;;;6.07;4.47;;;;;;;13.31;83.74;94672.31;5045149;28;20152;-71
2023/05/28 03:03:19;;;;;;;6.72;5.05;;;;;;;13.28;84.47;94663.97;5046032;28;20049;-71
2023/05/28 03:05:44;;;;;;;8.40;5.07;;;;;;;13.30;84.97;94665.47;5029418;28;20040;-71
2023/05/28 03:08:10;;;;;;;7.88;4.70;;;;;;;13.25;85.29;94662.44;5031179;28;20033;-71
2023/05/28 03:10:35;;;;;;;5.70;4.82;;;;;;;13.22;84.92;94660.13;5049939;28;20115;-71
2023/05/28 03:13:01;;;;;;;6.68;5.18;;;;;;;13.25;84.63;94649.41;5032587;28;20029;-71
2023/05/28 03:15:26;;;;;;;6.72;4.90;;;;;;;13.40;84.10;94660.19;5016176;28;20029;-71
2023/05/28 03:17:55;;;;;;;6.85;5.03;;;;;;;13.44;84.13;94660.72;5047131;28;20029;-71
2023/05/28 03:20:21;;;;;;;9.27;5.30;;;;;;;13.26;84.27;94661.53;5032113;28;20029;-71
2023/05/28 03:22:47;;;;;;;6.50;4.65;;;;;;;13.36;83.26;94666.66;5048954;28;20407;-71
2023/05/28 03:25:13;;;;;;;7.28;4.68;;;;;;;13.24;82.96;94666.03;5013812;28;20040;-71
2023/05/28 03:27:38;;;;;;;4.95;4.45;;;;;;;13.35;83.30;94659.81;5045006;28;20029;-71
2023/05/28 03:30:06;;;;;;;5.07;4.53;;;;;;;13.50;83.25;94662.72;5048231;28;20053;-71
2023/05/28 03:32:31;;;;;;;5.38;4.25;;;;;;;13.37;83.40;94663.91;5048809;28;20266;-71
2023/05/28 03:34:57;;;;;;;5.40;4.45;;;;;;;13.24;83.75;94668.63;5049379;28;20033;-71
2023/05/28 03:37:22;;;;;;;6.20;4.68;;;;;;;13.24;84.34;94662.59;5032084;28;20025;-72
2023/05/28 03:39:48;;;;;;;5.65;4.72;;;;;;;13.39;84.29;94656.75;5030686;28;20044;-71
2023/05/28 03:42:13;;;;;;;9.70;5.15;;;;;;;13.44;84.38;94664.13;5033135;28;20032;-71
2023/05/28 03:44:38;;;;;;;6.40;4.78;;;;;;;13.45;84.08;94664.94;5048260;28;20043;-71
2023/05/28 03:47:05;;;;;;;8.40;5.40;;;;;;;13.35;84.79;94659.81;5048316;28;20094;-71
2023/05/28 03:49:30;;;;;;;7.32;4.80;;;;;;;13.44;84.48;94663.31;5047919;28;20442;-71
2023/05/28 03:51:56;;;;;;;4.95;4.45;;;;;;;13.44;84.49;94666.75;5048267;28;20516;-71
2023/05/28 03:54:21;;;;;;;6.57;4.80;;;;;;;13.56;84.04;94659.50;5048200;28;20021;-71
2023/05/28 03:56:47;;;;;;;5.57;4.63;;;;;;;13.66;83.40;94659.44;5031519;28;20654;-71
2023/05/28 03:59:12;;;;;;;5.53;4.80;;;;;;;13.71;83.33;94671.09;5047802;28;20053;-71
2023/05/28 04:01:38;;;;;;;6.93;4.70;;;;;;;13.59;83.43;94675.69;5049701;28;20494;-71
2023/05/28 04:04:04;;;;;;;5.18;4.20;;;;;;;13.45;84.04;94670.16;5048907;28;20039;-71
2023/05/28 04:06:31;;;;;;;7.05;4.43;;;;;;;13.55;84.04;94676.97;5048467;28;20745;-71
2023/05/28 04:08:56;;;;;;;5.70;4.72;;;;;;;13.54;84.04;94670.13;5028203;28;20087;-72
2023/05/28 04:11:24;;;;;;;7.05;4.75;;;;;;;13.58;83.94;94673.25;5014634;28;20049;-71
2023/05/28 04:13:51;;;;;;;7.57;5.22;;;;;;;13.42;84.32;94666.06;5048055;28;20461;-71
2023/05/28 04:16:16;;;;;;;6.22;5.03;;;;;;;13.38;84.79;94673.38;5031449;28;20047;-71
2023/05/28 04:18:41;;;;;;;5.43;4.90;;;;;;;13.55;84.77;94652.66;5028380;28;20045;-71
2023/05/28 04:21:07;;;;;;;8.90;5.15;;;;;;;13.69;84.65;94667.78;5031512;28;20028;-71
2023/05/28 04:23:33;;;;;;;7.95;5.32;;;;;;;13.52;85.11;94672.03;5047618;28;20040;-71
2023/05/28 04:25:58;;;;;;;5.55;4.95;;;;;;;13.61;84.96;94670.31;5047869;28;20060;-72
2023/05/28 04:28:27;;;;;;;7.30;5.40;;;;;;;13.49;85.87;94671.53;5045793;28;20056;-71
2023/05/28 04:31:00;;;;;;;7.43;4.85;;;;;;;13.56;85.80;94677.78;5009857;28;20036;-71
2023/05/28 04:33:28;;;;;;;8.95;5.80;;;;;;;13.69;85.14;94685.25;5032323;28;20029;-71
2023/05/28 04:35:57;;;;;;;6.38;5.30;;;;;;;13.46;85.88;94664.81;5031260;28;20032;-71
2023/05/28 04:38:23;;;;;;;6.18;5.10;;;;;;;13.51;85.50;94669.56;5030463;28;20402;-71
2023/05/28 04:40:53;;;;;;;7.47;5.28;;;;;;;13.64;84.65;94681.28;5014053;28;20043;-71
2023/05/28 04:43:18;;;;;;;5.88;4.80;;;;;;;13.61;85.06;94686.00;5047482;28;20029;-71
2023/05/28 04:45:44;;;;;;;7.28;5.05;;;;;;;13.52;84.77;94658.19;5014226;28;20122;-71
2023/05/28 04:48:10;;;;;;;5.32;4.75;;;;;;;13.70;84.73;94689.50;5045692;28;20032;-71
2023/05/28 04:50:36;;;;;;;6.07;5.35;;;;;;;13.81;84.71;94687.47;5047104;28;20029;-71
2023/05/28 04:53:02;;;;;;;6.40;4.90;;;;;;;13.80;84.42;94685.84;5030037;28;20020;-71
2023/05/28 04:55:27;;;;;;;6.43;5.45;;;;;;;13.79;84.29;94693.81;5014464;28;20491;-71
2023/05/28 04:57:53;;;;;;;5.78;4.68;;;;;;;13.83;83.92;94679.50;5045502;28;20130;-71
2023/05/28 05:00:20;;;;;;;6.55;5.20;;;;;;;13.84;84.31;94687.16;5048759;28;20110;-71
2023/05/28 05:02:45;;;;;;;6.03;5.40;;;;;;;13.83;84.65;94669.88;5013667;28;20431;-71
2023/05/28 05:05:11;;;;;;;6.05;5.30;;;;;;;13.99;84.65;94673.59;5014430;28;20045;-71
2023/05/28 05:07:36;;;;;;;6.22;5.10;;;;;;;14.07;84.30;94678.91;5029449;28;20025;-71
2023/05/28 05:10:05;;;;;;;6.75;4.72;;;;;;;14.24;83.84;94674.59;5029899;28;20531;-71
2023/05/28 05:12:30;;;;;;;6.70;5.35;;;;;;;14.03;84.22;94647.00;5047804;28;20025;-71
2023/05/28 05:14:56;;;;;;;5.97;5.10;;;;;;;14.47;83.83;94678.34;5046592;28;20044;-71
2023/05/28 05:17:21;;;;;;;5.47;4.97;;;;;;;14.34;83.55;94677.09;5049407;28;20079;-71
2023/05/28 05:19:46;;;;;;;6.22;5.22;;;;;;;14.40;83.33;94677.34;5046667;28;20037;-71
2023/05/28 05:22:12;;;;;;;5.68;5.07;;;;;;;14.22;84.00;94666.91;5047540;28;20029;-71
2023/05/28 05:24:37;;;;;;;5.95;5.00;;;;;;;14.19;84.08;94664.59;5029686;28;20040;-71
2023/05/28 05:27:03;;;;;;;9.27;5.50;;;;;;;14.23;83.83;94672.94;5048335;28;20040;-71
2023/05/28 05:29:28;;;;;;;6.15;5.38;;;;;;;14.24;84.14;94675.41;5044345;28;20079;-71
2023/05/28 05:31:54;;;;;;;8.27;5.47;;;;;;;14.24;84.51;94675.41;5045822;28;20032;-71
2023/05/28 05:34:19;;;;;;;6.88;5.22;;;;;;;14.44;84.37;94667.38;5046513;28;20499;-71
2023/05/28 05:36:44;;;;;;;7.03;5.07;;;;;;;14.42;83.81;94669.31;5027035;28;20033;-71
2023/05/28 05:39:10;;;;;;;6.15;5.32;;;;;;;14.41;83.76;94668.50;5043167;28;20032;-71
2023/05/28 05:41:35;;;;;;;7.10;5.07;;;;;;;14.54;83.19;94675.94;5042465;28;20025;-71
2023/05/28 05:44:01;;;;;;;7.07;4.88;;;;;;;14.51;83.14;94665.78;5039698;28;20096;-71
2023/05/28 05:46:26;;;;;;;6.65;5.53;;;;;;;14.62;83.37;94675.19;5044525;28;20075;-71
2023/05/28 05:48:52;;;;;;;5.90;5.30;;;;;;;14.81;83.26;94668.91;5020433;28;20048;-71
2023/05/28 05:51:18;;;;;;;7.80;5.72;;;;;;;14.69;83.86;94666.56;5036720;28;20037;-71
2023/05/28 05:53:44;;;;;;;7.43;5.70;;;;;;;14.85;83.32;94678.06;5039194;28;20033;-71
2023/05/28 05:56:10;;;;;;;9.00;5.28;;;;;;;14.85;80.58;94657.16;5044130;28;20033;-71
2023/05/28 05:58:36;;;;;;;9.30;5.22;;;;;;;14.83;81.08;94673.00;5026940;28;20068;-71
2023/05/28 06:01:02;;;;;;;5.97;5.38;;;;;;;15.03;81.81;94673.59;5029669;28;20037;-71
2023/05/28 06:03:27;;;;;;;5.80;5.07;;;;;;;14.92;80.06;94656.38;5029108;28;20098;-71
2023/05/28 06:05:53;;;;;;;6.25;5.25;;;;;;;14.93;79.97;94667.66;5046573;28;20110;-71
2023/05/28 06:08:19;;;;;;;6.32;5.32;;;;;;;14.95;79.65;94670.94;5045339;28;20075;-71
2023/05/28 06:10:45;;;;;;;6.07;5.13;;;;;;;14.98;80.82;94675.84;5012911;28;20581;-71
2023/05/28 06:13:11;;;;;;;8.55;5.35;;;;;;;15.02;79.92;94666.72;5029136;28;20033;-71
2023/05/28 06:15:36;;;;;;;6.90;5.40;;;;;;;15.16;80.70;94675.78;5029475;28;20025;-71
2023/05/28 06:18:03;;;;;;;6.93;6.00;;;;;;;15.13;79.83;94670.88;5027545;28;20040;-71
2023/05/28 06:20:29;;;;;;;11.18;9.27;;;;;;;15.00;80.07;94662.63;5028839;28;20487;-71
2023/05/28 06:22:55;;;;;;;10.70;9.43;;;;;;;15.07;79.84;94666.25;5028844;28;20021;-71
2023/05/28 06:25:22;;;;;;;11.73;10.52;;;;;;;15.04;80.12;94684.88;5028919;28;20044;-71
2023/05/28 06:27:48;;;;;;;14.45;12.95;;;;;;;15.09;78.21;94688.66;5044094;28;20047;-71
2023/05/28 06:30:14;;;;;;;7.82;6.80;;;;;;;15.04;80.38;94683.06;5046920;28;20036;-71
2023/05/28 06:32:40;;;;;;;12.32;11.02;;;;;;;15.00;80.68;94684.38;5028760;28;20442;-71
2023/05/28 06:35:06;;;;;;;9.07;7.10;;;;;;;15.05;81.49;94666.41;5026736;28;20052;-72
2023/05/28 06:37:31;;;;;;;8.45;6.45;;;;;;;15.12;81.50;94693.56;5046379;28;20041;-71
2023/05/28 06:39:57;;;;;;;8.55;5.82;;;;;;;15.12;81.90;94690.94;5026633;28;20025;-72
2023/05/28 06:42:22;;;;;;;7.22;5.75;;;;;;;15.10;81.50;94664.16;5048771;28;20036;-71
2023/05/28 06:44:48;;;;;;;9.20;5.50;;;;;;;15.23;81.42;94689.03;5049049;28;20029;-71
2023/05/28 06:47:13;;;;;;;7.18;5.95;;;;;;;15.32;81.61;94688.06;5049688;28;20033;-71
2023/05/28 06:49:39;;;;;;;7.18;5.60;;;;;;;15.38;81.62;94687.47;5031030;28;20482;-72
2023/05/28 06:52:05;;;;;;;7.22;6.13;;;;;;;15.31;81.36;94691.69;5032529;28;20032;-71
2023/05/28 06:54:30;;;;;;;6.57;5.65;;;;;;;15.38;81.91;94700.53;5032802;28;20315;-71
2023/05/28 06:56:56;;;;;;;8.18;6.10;;;;;;;15.28;81.79;94702.47;5050580;28;20032;-71
2023/05/28 06:59:21;;;;;;;7.60;6.35;;;;;;;15.24;81.81;94690.66;5030501;28;20130;-71
2023/05/28 07:01:47;;;;;;;7.53;5.75;;;;;;;15.25;81.99;94702.78;5032141;28;20033;-71
2023/05/28 07:04:12;;;;;;;7.40;5.97;;;;;;;15.33;81.42;94698.41;5049617;28;20045;-71
2023/05/28 07:06:38;;;;;;;7.55;5.93;;;;;;;15.39;81.53;94695.13;5050384;28;20055;-72
2023/05/28 07:09:04;;;;;;;8.05;6.47;;;;;;;15.38;81.02;94692.69;5030545;28;20466;-72
2023/05/28 07:11:29;;;;;;;7.20;6.28;;;;;;;15.41;80.10;94687.94;5048771;28;20048;-71
2023/05/28 07:13:55;;;;;;;7.90;5.97;;;;;;;15.43;79.90;94703.47;5049007;28;20025;-71
2023/05/28 07:16:21;;;;;;;9.25;5.93;;;;;;;15.29;80.47;94701.47;5032661;28;20029;-71
2023/05/28 07:18:46;;;;;;;6.60;5.90;;;;;;;15.22;81.33;94688.22;5044883;28;20186;-71
2023/05/28 07:21:12;;;;;;;9.68;6.80;;;;;;;15.27;81.81;94695.59;5048806;28;20059;-73
2023/05/28 07:23:37;;;;;;;8.77;6.15;;;;;;;15.44;82.49;94696.47;5032115;28;20048;-72
2023/05/28 07:26:03;;;;;;;10.07;7.00;;;;;;;15.50;82.14;94690.59;5048958;28;20025;-71
2023/05/28 07:28:28;;;;;;;9.40;7.88;;;;;;;15.54;82.43;94694.50;5046909;28;20044;-71
2023/05/28 07:30:54;;;;;;;6.95;4.38;;;;;;;15.42;79.88;94680.91;5016911;28;20147;-72
2023/05/28 07:33:19;;;;;;;7.10;5.20;;;;;;;15.51;77.89;94682.56;5032587;28;20053;-72
2023/05/28 07:35:45;;;;;;;7.60;6.35;;;;;;;15.59;78.74;94672.09;5050612;28;20041;-71
2023/05/28 07:38:12;;;;;;;9.77;8.57;;;;;;;15.48;80.15;94663.75;5046045;28;20473;-72
2023/05/28 07:40:38;;;;;;;7.57;6.70;;;;;;;15.68;79.06;94688.69;5048004;28;20033;-71
2023/05/28 07:43:03;;;;;;;10.63;6.93;;;;;;;15.77;79.08;94689.53;5031884;28;20483;-71
2023/05/28 07:45:29;;;;;;;10.10;6.72;;;;;;;16.07;78.94;94686.28;5049810;28;20037;-71
2023/05/28 07:47:54;;;;;;;10.93;5.95;;;;;;;16.01;77.90;94683.47;5046958;28;20029;-71
2023/05/28 07:50:20;;;;;;;8.50;5.72;;;;;;;15.86;78.41;94683.31;5031513;28;20406;-72
2023/05/28 07:52:45;;;;;;;9.40;6.32;;;;;;;15.93;78.32;94675.63;5047488;28;20025;-71
2023/05/28 07:55:11;;;;;;;7.93;6.50;;;;;;;15.99;78.20;94669.72;5049510;28;20411;-71
2023/05/28 07:57:36;;;;;;;5.60;5.00;;;;;;;16.28;76.11;94669.22;5014706;28;20119;-71
2023/05/28 08:00:06;;;;;;;5.22;4.47;;;;;;;16.22;75.64;94665.47;5029823;28;20468;-71
2023/05/28 08:02:32;;;;;;;6.70;4.38;;;;;;;16.02;75.02;94632.75;5048134;28;20041;-72
2023/05/28 08:04:59;;;;;;;5.55;4.32;;;;;;;15.95;74.12;94653.53;5032171;28;20041;-72
2023/05/28 08:07:24;;;;;;;6.53;5.47;;;;;;;16.10;74.55;94666.78;5049268;28;20040;-71
2023/05/28 08:09:50;;;;;;;5.70;4.93;;;;;;;16.23;74.26;94666.28;5029277;28;20053;-72
2023/05/28 08:12:16;;;;;;;9.70;6.55;;;;;;;16.32;73.86;94654.78;5031553;28;20029;-72
2023/05/28 08:14:41;;;;;;;5.70;4.72;;;;;;;16.29;73.13;94660.38;5031435;28;20636;-72
2023/05/28 08:17:07;;;;;;;6.75;4.93;;;;;;;16.14;74.19;94638.47;5047964;28;20033;-72
2023/05/28 08:19:32;;;;;;;4.80;3.45;;;;;;;16.39;73.55;94666.28;5044705;28;20029;-71
2023/05/28 08:21:58;;;;;;;4.40;2.90;;;;;;;16.38;73.49;94669.88;5031263;28;20029;-72
2023/05/28 08:24:23;;;;;;;4.32;3.22;;;;;;;16.39;72.55;94674.13;5049025;28;20033;-71
2023/05/28 08:26:49;;;;;;;3.92;3.20;;;;;;;16.45;73.19;94681.31;5047723;28;20033;-71
2023/05/28 08:29:14;;;;;;;3.40;2.85;;;;;;;16.62;72.56;94668.19;5044602;28;20028;-71
2023/05/28 08:31:40;;;;;;;4.05;3.33;;;;;;;16.46;72.34;94667.22;5049707;28;21756;-71
2023/05/28 08:34:05;;;;;;;4.93;3.00;;;;;;;16.48;71.83;94661.81;5031366;28;20048;-72
2023/05/28 08:36:31;;;;;;;5.90;3.20;;;;;;;16.43;71.00;94675.41;5047943;28;20514;-71
2023/05/28 08:38:56;;;;;;;4.78;3.28;;;;;;;16.35;70.98;94658.91;5044537;28;20021;-71
2023/05/28 08:41:23;;;;;;;4.40;3.08;;;;;;;16.34;71.63;94668.56;5047568;28;20483;-71
2023/05/28 08:43:48;;;;;;;4.30;3.20;;;;;;;16.35;71.32;94674.63;5030527;28;20036;-71
2023/05/28 08:46:14;;;;;;;6.05;2.92;;;;;;;16.36;71.00;94669.22;5030735;28;20418;-71
2023/05/28 08:48:40;;;;;;;4.05;3.00;;;;;;;16.67;69.45;94674.56;5027603;28;20052;-71
2023/05/28 08:51:06;;;;;;;4.85;3.22;;;;;;;16.63;72.08;94682.94;5047569;28;20057;-71
2023/05/28 08:53:40;;;;;;;5.22;3.55;;;;;;;16.63;70.20;94673.28;5046628;28;20037;-71
2023/05/28 08:56:09;;;;;;;4.28;2.88;;;;;;;16.55;69.83;94665.44;5031268;28;20044;-71
2023/05/28 08:58:38;;;;;;;4.75;3.10;;;;;;;16.70;69.36;94673.41;5027195;28;20045;-71
2023/05/28 09:01:08;;;;;;;4.22;3.38;;;;;;;16.59;70.29;94666.72;5015312;28;20029;-71
2023/05/28 09:03:33;;;;;;;6.60;3.20;;;;;;;16.60;70.44;94670.16;5030530;28;20051;-71
2023/05/28 09:05:59;;;;;;;6.07;3.92;;;;;;;16.79;70.48;94672.44;5048982;28;20029;-71
2023/05/28 09:08:25;;;;;;;6.75;3.80;;;;;;;16.72;70.50;94672.28;5044181;28;20040;-72
2023/05/28 09:10:50;;;;;;;4.30;3.20;;;;;;;16.49;70.56;94666.06;5030172;28;20522;-72
2023/05/28 09:13:20;;;;;;;5.18;3.10;;;;;;;16.58;69.98;94659.84;5046549;28;20406;-71
2023/05/28 09:15:52;;;;;;;4.50;3.40;;;;;;;16.81;68.47;94664.41;5030991;28;20028;-72
2023/05/28 09:18:21;;;;;;;4.25;3.40;;;;;;;16.88;67.51;94660.94;5043791;28;20049;-71
2023/05/28 09:20:49;;;;;;;5.05;3.35;;;;;;;16.92;69.08;94669.28;5046351;28;20039;-72
2023/05/28 09:23:18;;;;;;;3.47;2.92;;;;;;;16.92;69.60;94666.66;5046059;28;20030;-71
2023/05/28 09:25:44;;;;;;;3.90;2.90;;;;;;;16.90;69.03;94661.56;5013985;28;20033;-71
2023/05/28 09:28:13;;;;;;;4.93;3.17;;;;;;;16.46;72.22;94658.53;5010344;28;20178;-70
2023/05/28 09:30:38;;;;;;;5.00;3.25;;;;;;;16.56;72.02;94658.38;5030182;28;20158;-71
2023/05/28 09:33:05;;;;;;;6.00;3.63;;;;;;;16.64;72.31;94656.56;5029525;28;20067;-71
2023/05/28 09:35:31;;;;;;;5.40;3.30;;;;;;;16.82;72.61;94666.03;5030363;28;20029;-71
2023/05/28 09:38:07;;;;;;;5.25;3.60;;;;;;;16.90;70.99;94664.19;5027908;28;20158;-71
2023/05/28 09:40:42;;;;;;;3.72;2.85;;;;;;;16.52;69.60;94657.91;5015738;28;20033;-71
2023/05/28 09:43:08;;;;;;;4.63;2.90;;;;;;;16.63;70.12;94662.78;5046979;28;20028;-71
2023/05/28 09:45:34;;;;;;;5.75;2.80;;;;;;;16.64;69.50;94659.19;5028706;28;20029;-71
2023/05/28 09:47:59;;;;;;;4.05;3.00;;;;;;;16.69;68.95;94671.78;5024538;28;20041;-71
2023/05/28 09:50:25;;;;;;;6.10;3.33;;;;;;;16.67;68.64;94661.47;5045532;28;20104;-71
2023/05/28 09:52:51;;;;;;;4.72;3.20;;;;;;;16.86;66.39;94662.91;5045305;28;20021;-71
2023/05/28 09:55:20;;;;;;;6.07;3.60;;;;;;;16.82;66.39;94650.28;5045407;28;20552;-71
2023/05/28 09:58:05;;;;;;;3.88;3.10;;;;;;;17.05;65.55;94663.47;5043781;28;20060;-71
2023/05/28 10:00:35;;;;;;;4.10;3.08;;;;;;;16.98;65.70;94666.78;5029078;28;20033;-72
2023/05/28 10:03:21;;;;;;;5.60;3.00;;;;;;;17.04;65.62;94654.81;5028861;28;20032;-71
2023/05/28 10:05:49;;;;;;;6.00;3.25;;;;;;;16.93;67.17;94670.91;5045766;28;20474;-71
2023/05/28 10:08:15;;;;;;;5.63;2.85;;;;;;;16.88;66.10;94674.06;5010138;28;20399;-71
2023/05/28 10:10:42;;;;;;;6.82;3.25;;;;;;;16.73;66.76;94670.47;5045739;28;20045;-71
2023/05/28 10:13:09;;;;;;;4.32;3.30;;;;;;;16.58;67.64;94675.59;5044490;28;20165;-72
2023/05/28 10:15:35;;;;;;;4.32;3.10;;;;;;;16.66;68.49;94675.56;5029203;28;20029;-71
2023/05/28 10:18:02;;;;;;;4.35;3.33;;;;;;;16.71;68.73;94682.91;5009767;28;20491;-71
2023/05/28 10:20:27;;;;;;;5.20;3.35;;;;;;;16.74;69.71;94670.31;5030825;28;20483;-72
2023/05/28 10:22:52;;;;;;;4.60;3.78;;;;;;;16.67;69.69;94679.00;5046390;28;20078;-71
2023/05/28 10:25:18;;;;;;;4.00;3.22;;;;;;;16.63;70.32;94670.66;5029393;28;20041;-71
2023/05/28 10:27:45;;;;;;;4.32;3.53;;;;;;;16.67;68.78;94669.31;5044523;28;20388;-71
2023/05/28 10:30:12;;;;;;;4.53;3.35;;;;;;;16.54;68.94;94664.59;5027917;28;20068;-71
2023/05/28 10:32:41;;;;;;;6.00;3.90;;;;;;;16.41;69.09;94652.97;5045339;28;20033;-71
2023/05/28 10:35:12;;;;;;;6.30;3.72;;;;;;;16.45;69.60;94662.97;5045304;28;20487;-71
2023/05/28 10:37:37;;;;;;;5.57;4.10;;;;;;;16.37;69.97;94655.13;5044930;28;20509;-71
2023/05/28 10:40:03;;;;;;;5.75;4.15;;;;;;;16.30;69.70;94657.59;5043547;28;20041;-71
2023/05/28 10:42:28;;;;;;;5.32;3.95;;;;;;;16.28;69.26;94664.81;5028519;28;20029;-71
2023/05/28 10:45:00;;;;;;;5.80;4.47;;;;;;;16.30;69.80;94662.03;5028044;28;20041;-71
2023/05/28 10:47:35;;;;;;;5.93;4.95;;;;;;;16.40;69.61;94659.22;5045428;28;20120;-71
2023/05/28 10:50:12;;;;;;;5.78;4.68;;;;;;;16.41;69.98;94666.94;5043511;28;20074;-72
2023/05/28 10:52:38;;;;;;;5.80;4.35;;;;;;;16.41;68.70;94653.81;5045357;28;20068;-71
2023/05/28 10:55:05;;;;;;;6.50;3.97;;;;;;;16.47;69.46;94658.41;5046120;28;20057;-74
2023/05/28 10:57:43;;;;;;;5.97;3.80;;;;;;;16.53;68.08;94646.41;5045882;28;20538;-73
2023/05/28 11:00:15;;;;;;;6.75;4.43;;;;;;;16.42;68.03;94639.72;5028578;28;20029;-71
2023/05/28 11:02:45;;;;;;;6.47;4.38;;;;;;;16.62;67.67;94636.72;5046044;28;20048;-70
2023/05/28 11:05:10;;;;;;;5.30;4.28;;;;;;;16.74;67.31;94649.31;5047062;28;20040;-70
2023/05/28 11:07:37;;;;;;;5.05;4.53;;;;;;;16.54;68.45;94651.47;5045194;28;20033;-70
2023/05/28 11:10:04;;;;;;;7.07;4.35;;;;;;;16.70;68.32;94639.31;5042660;28;20045;-71
2023/05/28 11:12:31;;;;;;;5.93;5.32;;;;;;;16.78;68.10;94633.28;5045436;28;20033;-69
2023/05/28 11:14:56;;;;;;;5.28;4.78;;;;;;;16.75;67.76;94623.91;5011890;28;20036;-69
2023/05/28 11:17:22;;;;;;;6.00;4.57;;;;;;;17.10;67.49;94645.44;5045089;28;20025;-70
2023/05/28 11:19:49;;;;;;;5.97;4.20;;;;;;;17.23;65.90;94637.81;5025573;28;20041;-70
2023/05/28 11:22:15;;;;;;;4.40;4.00;;;;;;;17.15;65.10;94637.88;5012261;28;20039;-70
2023/05/28 11:25:04;;;;;;;5.38;4.32;;;;;;;17.36;65.98;94640.72;5028111;28;20045;-70
2023/05/28 11:27:30;;;;;;;6.13;4.20;;;;;;;17.26;64.26;94636.66;5046090;28;20112;-70
2023/05/28 11:29:57;;;;;;;6.25;3.95;;;;;;;17.42;64.69;94637.41;5012721;28;20436;-70